Latest Coastal Weather Observations for Minlaton Airport

IDS60701

Issued at 5:15 pm CDT Thursday 27 November 2014 (issued every 10 minutes, with the page automatically refreshed every 10 minutes)

About coastal observations | Map of coastal stations | Coastal observations for SA | Marine services | Other Formats
Station Details ID: 022031 Name: MINLATON AERO Lat: -34.75 Lon: 137.53 Height: 32.0 m
Data from the previous 72 hours. | See also: Recent months at Minlaton Airport
Date/Time
CDT
Temp

°C
Wind Pressure Rain
since 9am
mm
Weather Cloud Vis
km
Sea
Height
m
Swell
Dir
 
Speed
knots
Gust
knots
hPa Trend Height
m
Period
s
Dir
27/05:00pm 24.4 SSE 13 19 1020.8 - 0.0 - - - - - - -
27/04:30pm 24.7 SSE 13 18 1020.9 - 0.0 - - - - - - -
27/04:00pm 24.7 SSE 16 21 1020.9 - 0.0 - - - - - - -
27/03:30pm 25.1 SE 13 20 1021.1 - 0.0 - - - - - - -
27/03:00pm 25.5 SE 12 18 1021.2 - 0.0 - - - - - - -
27/02:30pm 24.9 SE 12 15 1021.5 - 0.0 - - - - - - -
27/02:00pm 24.9 ESE 11 14 1021.9 - 0.0 - - - - - - -
27/01:30pm 24.1 ESE 9 17 1022.3 - 0.0 - - - - - - -
27/01:00pm 23.7 SE 10 14 1022.4 - 0.0 - - - - - - -
27/12:30pm 23.4 SE 12 17 1022.4 - 0.0 - - - - - - -
27/12:00pm 23.3 ESE 13 20 1022.7 - 0.0 - - - - - - -
27/11:30am 22.2 SE 12 16 1023.1 - 0.0 - - - - - - -
27/11:00am 22.0 SE 10 16 1023.4 - 0.0 - - - - - - -
27/10:30am 20.4 ESE 11 18 1023.6 - 0.0 - - - - - - -
27/10:00am 20.1 ESE 13 17 1023.8 - 0.0 - - - - - - -
27/09:30am 19.7 ESE 13 19 1024.0 - 0.0 - - - - - - -
27/09:00am 18.9 ESE 14 19 1024.0 - 0.0 - - - - - - -
27/08:30am 17.7 ESE 15 19 1023.9 - 0.0 - - - - - - -
27/08:00am 17.2 ESE 17 21 1023.6 - 0.0 - - - - - - -
27/07:30am 16.3 ESE 17 23 1023.5 - 0.0 - - - - - - -
27/07:00am 15.3 ESE 14 18 1023.1 - 0.0 - - - - - - -
27/06:30am 14.5 ESE 11 17 1023.0 - 0.0 - - - - - - -
27/06:00am 14.2 ESE 11 15 1022.8 - 0.0 - - - - - - -
27/05:30am 14.1 ESE 9 12 1022.4 - 0.0 - - - - - - -
27/05:00am 14.5 SE 11 14 1022.2 - 0.0 - - - - - - -
27/04:30am 14.5 ESE 9 13 1022.3 - 0.0 - - - - - - -
27/04:00am 14.7 SE 12 15 1022.0 - 0.0 - - - - - - -
27/03:30am 14.6 SE 14 19 1021.6 - 0.0 - - - - - - -
27/03:00am 14.4 SE 15 18 1021.7 - 0.0 - - - - - - -
27/02:30am 14.4 SE 16 19 1021.8 - 0.0 - - - - - - -
27/02:00am 14.3 SE 16 19 1022.0 - 0.0 - - - - - - -
27/01:30am 14.4 SE 16 19 1022.4 - 0.0 - - - - - - -
27/01:00am 14.6 SE 15 19 1022.8 - 0.0 - - - - - - -
27/12:30am 14.8 SE 14 21 1023.2 - 0.0 - - - - - - -
27/12:00am 14.5 SE 13 16 1023.5 - 0.0 - - - - - - -
 
Date/Time
CDT
Temp

°C
Wind Pressure Rain
since 9am
mm
Weather Cloud Vis
km
Sea
Height
m
Swell
Dir
 
Speed
knots
Gust
knots
hPa Trend Height
m
Period
s
Dir
26/11:30pm 14.9 SE 15 22 1023.4 - 0.0 - - - - - - -
26/11:00pm 14.7 SE 14 17 1023.3 - 0.0 - - - - - - -
26/10:30pm 14.9 SE 15 19 1023.3 - 0.0 - - - - - - -
26/10:00pm 15.0 SE 16 20 1023.2 - 0.0 - - - - - - -
26/09:30pm 15.0 SSE 16 20 1022.7 - 0.0 - - - - - - -
26/09:00pm 15.2 SSE 17 20 1022.5 - 0.0 - - - - - - -
26/08:30pm 15.7 SSE 18 24 1022.6 - 0.0 - - - - - - -
26/08:00pm 16.5 SSE 15 21 1022.6 - 0.0 - - - - - - -
26/07:30pm 17.5 SSE 18 24 1022.4 - 0.0 - - - - - - -
26/07:00pm 18.6 SSE 19 23 1022.2 - 0.0 - - - - - - -
26/06:30pm 19.2 SSE 19 23 1021.8 - 0.0 - - - - - - -
26/06:00pm 20.0 SE 18 23 1021.7 - 0.0 - - - - - - -
26/05:30pm 20.9 SSE 17 22 1021.7 - 0.0 - - - - - - -
26/05:00pm 21.6 S 16 21 1021.7 - 0.0 - - - - - - -
26/04:30pm 21.4 SE 14 20 1021.8 - 0.0 - - - - - - -
26/04:00pm 21.8 SSE 14 21 1021.9 - 0.0 - - - - - - -
26/03:30pm 23.0 SSE 15 21 1021.9 - 0.0 - - - - - - -
26/03:00pm 21.9 SE 13 19 1022.1 - 0.0 - - - - - - -
26/02:30pm 22.0 SSE 15 21 1022.4 - 0.0 - - - - - - -
26/02:00pm 22.0 SSE 15 19 1022.6 - 0.0 - - - - - - -
26/01:30pm 22.7 SSE 14 18 1022.7 - 0.0 - - - - - - -
26/01:00pm 21.9 SSE 11 15 1023.0 - 0.0 - - - - - - -
26/12:30pm 21.5 E 10 14 1023.3 - 0.0 - - - - - - -
26/12:00pm 21.3 S 11 13 1023.6 - 0.0 - - - - - - -
26/11:30am 21.2 SE 8 14 1024.0 - 0.0 - - - - - - -
26/11:00am 20.6 SE 8 14 1024.2 - 0.0 - - - - - - -
26/10:30am 19.3 SSE 8 13 1024.3 - 0.0 - - - - - - -
26/10:00am 18.7 ESE 10 14 1024.3 - 0.0 - - - - - - -
26/09:30am 18.3 SSE 11 14 1024.2 - 0.0 - - - - - - -
26/09:00am 17.5 ESE 8 13 1024.1 - 0.0 - - - - - - -
26/08:30am 16.6 ESE 10 14 1023.8 - 0.0 - - - - - - -
26/08:00am 16.4 SSE 10 13 1023.4 - 0.0 - - - - - - -
26/07:30am 14.7 SSE 8 10 1023.2 - 0.0 - - - - - - -
26/07:00am 13.2 SSE 7 8 1022.9 - 0.0 - - - - - - -
26/06:30am 11.0 SE 9 10 1022.5 - 0.0 - - - - - - -
26/06:00am 10.2 SE 10 11 1022.1 - 0.0 - - - - - - -
26/05:30am 10.0 SE 9 10 1022.0 - 0.0 - - - - - - -
26/05:00am 10.2 SE 10 11 1021.8 - 0.0 - - - - - - -
26/04:30am 10.2 SE 10 11 1021.8 - 0.0 - - - - - - -
26/04:00am 10.3 SE 10 10 1021.8 - 0.0 - - - - - - -
26/03:30am 10.5 SE 10 11 1021.8 - 0.0 - - - - - - -
26/03:00am 10.5 SE 10 11 1022.0 - 0.0 - - - - - - -
26/02:30am 10.6 SE 9 9 1022.2 - 0.0 - - - - - - -
26/02:00am 10.8 SE 10 11 1022.1 - 0.0 - - - - - - -
26/01:30am 10.6 SSE 10 11 1022.4 - 0.0 - - - - - - -
26/01:00am 10.3 SSE 10 11 1022.7 - 0.0 - - - - - - -
26/12:30am 10.4 SSE 9 10 1023.0 - 0.0 - - - - - - -
26/12:00am 11.3 SSE 9 11 1023.2 - 0.0 - - - - - - -
 
Date/Time
CDT
Temp

°C
Wind Pressure Rain
since 9am
mm
Weather Cloud Vis
km
Sea
Height
m
Swell
Dir
 
Speed
knots
Gust
knots
hPa Trend Height
m
Period
s
Dir
25/11:30pm 12.0 SE 10 11 1023.4 - 0.0 - - - - - - -
25/11:00pm 12.5 SE 9 11 1023.5 - 0.0 - - - - - - -
25/10:30pm 12.9 SE 10 13 1023.5 - 0.0 - - - - - - -
25/10:00pm 11.9 SSE 8 9 1023.4 - 0.0 - - - - - - -
25/09:30pm 11.9 S 8 9 1023.3 - 0.0 - - - - - - -
25/09:00pm 13.4 SSE 8 9 1023.1 - 0.0 - - - - - - -
25/08:30pm 15.4 S 11 16 1022.8 - 0.0 - - - - - - -
25/08:00pm 16.5 S 14 17 1022.5 - 0.0 - - - - - - -
25/07:30pm 17.5 S 15 18 1022.3 - 0.0 - - - - - - -
25/07:00pm 18.9 S 12 15 1021.9 - 0.0 - - - - - - -
25/06:30pm 19.2 W 13 16 1021.6 - 0.0 - - - - - - -
25/06:00pm 19.6 W 14 17 1021.5 - 0.0 - - - - - - -
25/05:30pm 19.6 W 14 17 1021.8 - 0.0 - - - - - - -
25/05:00pm 20.4 WSW 15 18 1021.8 - 0.0 - - - - - - -
25/04:30pm 21.1 W 14 18 1022.0 - 0.0 - - - - - - -
25/04:00pm 20.2 W 15 19 1022.2 - 0.0 - - - - - - -
25/03:30pm 20.3 W 15 20 1022.3 - 0.0 - - - - - - -
25/03:00pm 20.2 W 13 17 1022.6 - 0.0 - - - - - - -
25/02:30pm 21.4 W 13 18 1022.6 - 0.0 - - - - - - -
25/02:00pm 20.0 W 11 16 1022.6 - 0.0 - - - - - - -
25/01:30pm 20.6 W 13 18 1022.7 - 0.0 - - - - - - -
25/01:00pm 21.0 W 13 18 1022.9 - 0.0 - - - - - - -
25/12:30pm 19.9 W 12 17 1023.1 - 0.0 - - - - - - -
25/12:00pm 19.5 W 13 17 1023.2 - 0.0 - - - - - - -
25/11:30am 19.3 WSW 11 15 1023.3 - 0.0 - - - - - - -
25/11:00am 19.5 W 11 16 1023.4 - 0.0 - - - - - - -
25/10:30am 18.4 W 8 12 1023.5 - 0.0 - - - - - - -
25/10:00am 16.9 W 4 7 1023.7 - 0.0 - - - - - - -
25/09:30am 16.4 SW 6 12 1023.7 - 0.0 - - - - - - -
25/09:00am 16.0 WSW 7 9 1023.5 - 0.2 - - - - - - -
25/08:30am 17.1 S 6 9 1023.2 - 0.2 - - - - - - -
25/08:00am 15.5 S 5 7 1023.0 - 0.2 - - - - - - -
25/07:30am 13.8 SSE 5 5 1022.7 - 0.2 - - - - - - -
25/07:00am 9.9 SSE 6 6 1022.4 - 0.2 - - - - - - -
25/06:30am 8.2 ESE 6 8 1022.1 - 0.2 - - - - - - -
25/06:00am 7.1 SE 5 6 1021.6 - 0.2 - - - - - - -
25/05:30am 7.1 SSE 5 6 1021.3 - 0.2 - - - - - - -
25/05:00am 7.3 SSE 6 7 1020.9 - 0.2 - - - - - - -
25/04:30am 7.3 SSE 6 7 1020.9 - 0.2 - - - - - - -
25/04:00am 7.4 SSE 6 6 1020.8 - 0.2 - - - - - - -
25/03:30am 7.1 SE 4 4 1020.5 - 0.2 - - - - - - -
25/03:00am 8.6 S 5 7 1020.5 - 0.2 - - - - - - -
25/02:30am 9.5 S 6 7 1020.5 - 0.2 - - - - - - -
25/02:00am 8.6 SSE 6 7 1020.4 - 0.2 - - - - - - -
25/01:30am 9.7 S 6 7 1020.3 - 0.2 - - - - - - -
25/01:00am 9.8 S 7 8 1020.3 - 0.2 - - - - - - -
25/12:30am 10.5 S 5 6 1020.3 - 0.2 - - - - - - -
25/12:00am 11.5 SSW 10 11 1020.1 - 0.2 - - - - - - -
 
Date/Time
CDT
Temp

°C
Wind Pressure Rain
since 9am
mm
Weather Cloud Vis
km
Sea
Height
m
Swell
Dir
 
Speed
knots
Gust
knots
hPa Trend Height
m
Period
s
Dir
24/11:30pm 11.4 S 8 9 1020.1 - 0.2 - - - - - - -
24/11:00pm 12.8 SSW 11 13 1020.0 - 0.2 - - - - - - -
24/10:30pm 13.6 SSW 13 16 1020.1 - 0.2 - - - - - - -
24/10:00pm 14.0 SSW 13 18 1019.9 - 0.2 - - - - - - -
24/09:30pm 14.4 SW 17 21 1019.5 - 0.2 - - - - - - -
24/09:00pm 14.6 SW 15 21 1019.1 - 0.2 - - - - - - -
24/08:30pm 14.7 SSW 13 18 1018.7 - 0.2 - - - - - - -
24/08:00pm 15.5 SSW 14 18 1018.2 - 0.2 - - - - - - -
24/07:30pm 16.9 SW 17 22 1017.6 - 0.2 - - - - - - -
24/07:00pm 18.0 SSW 17 23 1017.2 - 0.2 - - - - - - -
24/06:48pm 18.1 SSW 18 21 1016.9 - 0.2 - - - - - - -
24/06:39pm 18.3 WSW 20 30 1016.7 - 0.2 - - - - - - -
24/06:30pm 19.0 SW 20 29 1016.7 - 0.2 - - - - - - -
24/06:00pm 18.7 WSW 22 28 1016.6 - 0.2 - - - - - - -
24/05:30pm 19.4 WSW 22 28 1016.3 - 0.2 - - - - - - -

Other Formats:

Comma delimited format used in spreadsheet applications
http://www.bom.gov.au/fwo/IDS60701/IDS60701.95659.axf

JavaScript Object Notation format (JSON) in row-major order
http://www.bom.gov.au/fwo/IDS60701/IDS60701.95659.json